Time;durP1;ratioP1;P1;durP2;ratioP2;P2;SDS_P1;SDS_P2;PMS_P1;PMS_P2;Temp;Humidity;BMP_temperature;BMP_pressure;BME280_temperature;BME280_humidity;BME280_pressure;Samples;Min_cycle;Max_cycle;Signal;HPM_P1;HPM_P2
2022/08/06 00:02:24;;;;;;;2.90;0.80;;;17.40;84.50;;;;;;5110427;28;20200;-35
2022/08/06 00:05:00;;;;;;;4.10;1.00;;;17.40;84.50;;;;;;5125018;28;20543;-35
2022/08/06 00:07:31;;;;;;;1.70;0.85;;;17.30;84.60;;;;;;5127009;28;20694;-35
2022/08/06 00:10:14;;;;;;;3.65;0.98;;;17.30;84.60;;;;;;5108593;28;20209;-35
2022/08/06 00:12:45;;;;;;;1.83;0.68;;;17.30;84.70;;;;;;5095650;28;20237;-34
2022/08/06 00:15:18;;;;;;;2.88;0.90;;;17.20;84.60;;;;;;5111550;28;20688;-35
2022/08/06 00:18:05;;;;;;;4.07;1.20;;;17.20;84.60;;;;;;5124640;27;20215;-35
2022/08/06 00:20:35;;;;;;;3.33;1.00;;;17.10;84.60;;;;;;5110792;28;20256;-35
2022/08/06 00:23:10;;;;;;;3.10;0.97;;;17.10;84.80;;;;;;5111226;28;20212;-36
2022/08/06 00:25:46;;;;;;;2.33;0.90;;;17.10;84.80;;;;;;5125980;27;20202;-34
2022/08/06 00:28:25;;;;;;;2.17;0.90;;;17.00;84.80;;;;;;5110675;28;20581;-36
2022/08/06 00:30:59;;;;;;;3.20;1.10;;;17.00;84.90;;;;;;5097598;27;20210;-35
2022/08/06 00:33:38;;;;;;;2.65;0.88;;;17.00;84.90;;;;;;5079919;28;20211;-37
2022/08/06 00:36:26;;;;;;;2.22;0.70;;;16.90;84.70;;;;;;5095556;28;20556;-35
2022/08/06 00:39:02;;;;;;;5.00;1.10;;;17.00;85.10;;;;;;5092832;28;20237;-37
2022/08/06 00:41:37;;;;;;;2.72;0.70;;;16.90;85.00;;;;;;5111074;28;20210;-36
2022/08/06 00:44:11;;;;;;;5.30;0.93;;;16.90;85.10;;;;;;5102719;28;20212;-36
2022/08/06 00:46:43;;;;;;;5.73;1.17;;;16.90;85.20;;;;;;5094555;28;20210;-37
2022/08/06 00:49:13;;;;;;;3.43;1.00;;;16.90;85.30;;;;;;5110393;28;20206;-36
2022/08/06 00:52:00;;;;;;;2.70;1.07;;;16.80;85.20;;;;;;5110966;28;20276;-36
2022/08/06 00:54:28;;;;;;;3.63;0.80;;;16.80;85.30;;;;;;5110395;28;20198;-36
2022/08/06 00:57:06;;;;;;;4.77;0.97;;;16.70;85.30;;;;;;5110908;28;20213;-36
2022/08/06 00:59:38;;;;;;;5.17;1.07;;;16.70;85.40;;;;;;5090966;28;20290;-36
2022/08/06 01:02:12;;;;;;;4.93;1.00;;;16.70;85.50;;;;;;5106153;28;20585;-36
2022/08/06 01:04:43;;;;;;;3.23;0.97;;;16.70;85.50;;;;;;5079222;28;20224;-36
2022/08/06 01:07:11;;;;;;;3.23;0.90;;;16.60;85.50;;;;;;5090950;28;20696;-36
2022/08/06 01:09:39;;;;;;;6.30;1.10;;;16.60;85.50;;;;;;5105850;28;20222;-36
2022/08/06 01:12:25;;;;;;;5.97;1.10;;;16.60;85.60;;;;;;5092028;28;20203;-36
2022/08/06 01:15:05;;;;;;;4.40;1.00;;;16.50;85.60;;;;;;5092334;28;20226;-37
2022/08/06 01:17:56;;;;;;;3.85;0.80;;;16.50;85.70;;;;;;5101675;28;20202;-37
2022/08/06 01:20:53;;;;;;;5.40;1.13;;;16.50;85.90;;;;;;5091741;28;20691;-37
2022/08/06 01:24:04;;;;;;;2.37;0.80;;;16.40;85.90;;;;;;5091569;28;20222;-36
2022/08/06 01:27:14;;;;;;;3.80;0.87;;;16.40;85.90;;;;;;5097112;28;20301;-36
2022/08/06 01:29:50;;;;;;;5.63;1.17;;;16.40;86.20;;;;;;5093197;27;20255;-36
2022/08/06 01:32:29;;;;;;;1.97;0.90;;;16.40;86.10;;;;;;5103917;28;20545;-36
2022/08/06 01:35:01;;;;;;;4.50;1.23;;;16.40;86.30;;;;;;5092822;28;20207;-36
2022/08/06 01:37:54;;;;;;;2.27;1.00;;;16.30;86.00;;;;;;5074124;28;20210;-37
2022/08/06 01:40:34;;;;;;;2.43;0.97;;;16.30;86.20;;;;;;5083822;28;20703;-36
2022/08/06 01:43:06;;;;;;;1.77;0.80;;;16.30;86.30;;;;;;5110030;28;20210;-35
2022/08/06 01:45:55;;;;;;;2.63;1.00;;;16.30;86.20;;;;;;5108656;28;20213;-36
2022/08/06 01:48:29;;;;;;;2.03;1.00;;;16.20;86.20;;;;;;5109558;28;20282;-44
2022/08/06 01:51:02;;;;;;;1.63;1.00;;;16.20;86.40;;;;;;5122438;27;20572;-43
2022/08/06 01:53:37;;;;;;;1.77;0.93;;;16.10;86.30;;;;;;5104004;27;20221;-43
2022/08/06 01:56:26;;;;;;;4.73;1.10;;;16.10;86.30;;;;;;5129906;27;20237;-43
2022/08/06 01:59:21;;;;;;;3.97;0.93;;;16.10;86.30;;;;;;5114751;27;20253;-36
2022/08/06 02:01:53;;;;;;;3.83;1.10;;;16.00;86.40;;;;;;5112051;27;20245;-35
2022/08/06 02:04:25;;;;;;;5.53;1.00;;;16.00;86.40;;;;;;5111427;27;20189;-36
2022/08/06 02:06:56;;;;;;;2.63;0.90;;;16.00;86.50;;;;;;5129621;27;20236;-36
2022/08/06 02:09:24;;;;;;;1.77;1.13;;;15.90;86.50;;;;;;5110552;27;20560;-36
2022/08/06 02:12:22;;;;;;;2.60;0.80;;;15.90;86.40;;;;;;5122878;27;20242;-36
2022/08/06 02:14:58;;;;;;;1.23;0.70;;;15.90;87.10;;;;;;5109723;28;20237;-36
2022/08/06 02:17:31;;;;;;;4.93;1.48;;;15.80;86.80;;;;;;5109404;28;20198;-37
2022/08/06 02:20:25;;;;;;;2.40;1.00;;;15.80;86.80;;;;;;5108364;28;20229;-36
2022/08/06 02:23:06;;;;;;;2.30;0.90;;;15.80;87.00;;;;;;5094253;27;20214;-36
2022/08/06 02:25:40;;;;;;;2.97;0.97;;;15.80;87.10;;;;;;5108110;28;20260;-37
2022/08/06 02:28:10;;;;;;;3.07;1.10;;;15.80;87.20;;;;;;5108822;28;20222;-36
2022/08/06 02:30:55;;;;;;;2.47;1.03;;;15.80;87.30;;;;;;5142515;27;20598;-37
2022/08/06 02:33:25;;;;;;;2.30;0.93;;;15.80;87.30;;;;;;5145346;27;20208;-37
2022/08/06 02:36:28;;;;;;;2.47;1.10;;;15.80;87.30;;;;;;5129228;27;20198;-37
2022/08/06 02:39:06;;;;;;;3.07;1.10;;;15.80;87.10;;;;;;5129582;27;20309;-36
2022/08/06 02:41:48;;;;;;;1.80;1.00;;;15.80;87.40;;;;;;5112318;27;20197;-36
2022/08/06 02:44:51;;;;;;;2.13;1.20;;;15.80;87.00;;;;;;5111258;27;20278;-36
2022/08/06 02:47:51;;;;;;;2.00;0.90;;;15.80;87.60;;;;;;5106578;27;20282;-36
2022/08/06 02:50:35;;;;;;;2.60;1.30;;;15.80;87.40;;;;;;5111286;28;20209;-36
2022/08/06 02:53:10;;;;;;;3.53;1.30;;;15.80;87.40;;;;;;5118170;27;20205;-36
2022/08/06 02:55:55;;;;;;;1.77;1.17;;;15.80;87.60;;;;;;5129297;27;20216;-36
2022/08/06 02:58:39;;;;;;;2.23;1.00;;;15.80;87.40;;;;;;5111089;28;20244;-37
2022/08/06 03:01:20;;;;;;;1.40;0.90;;;15.80;87.90;;;;;;5112825;28;20202;-36
2022/08/06 03:03:58;;;;;;;2.70;0.87;;;15.70;87.70;;;;;;5091027;28;20197;-37
2022/08/06 03:06:29;;;;;;;3.53;0.90;;;15.70;87.60;;;;;;5108171;28;20707;-36
2022/08/06 03:08:58;;;;;;;4.57;1.20;;;15.70;87.50;;;;;;5108762;28;20256;-36
2022/08/06 03:11:30;;;;;;;2.03;0.80;;;15.60;87.50;;;;;;5109197;28;20574;-36
2022/08/06 03:14:04;;;;;;;1.77;0.90;;;15.60;88.00;;;;;;5090821;28;20217;-36
2022/08/06 03:16:54;;;;;;;2.80;1.00;;;15.60;88.20;;;;;;5109353;28;20220;-36
2022/08/06 03:19:26;;;;;;;1.13;0.83;;;15.60;88.40;;;;;;5109837;28;20305;-37
2022/08/06 03:22:15;;;;;;;3.93;1.07;;;15.50;88.30;;;;;;5128890;28;20272;-37
2022/08/06 03:25:04;;;;;;;2.57;1.03;;;15.50;88.30;;;;;;5128919;28;20213;-43
2022/08/06 03:27:33;;;;;;;1.23;1.03;;;15.50;88.10;;;;;;5129326;28;20240;-43
2022/08/06 03:30:15;;;;;;;2.67;1.00;;;15.50;88.30;;;;;;5130768;27;20267;-43
2022/08/06 03:33:04;;;;;;;2.90;1.20;;;15.40;88.10;;;;;;5148775;27;20651;-43
2022/08/06 03:35:56;;;;;;;1.73;1.10;;;15.40;88.00;;;;;;5108179;28;20206;-43
2022/08/06 03:38:25;;;;;;;2.53;1.07;;;15.30;88.00;;;;;;5109042;28;20228;-42
2022/08/06 03:40:58;;;;;;;2.27;0.90;;;15.30;88.10;;;;;;5108565;28;20198;-43
2022/08/06 03:43:28;;;;;;;2.87;0.90;;;15.30;88.00;;;;;;5108509;28;20206;-42
2022/08/06 03:46:31;;;;;;;2.10;0.93;;;15.30;88.20;;;;;;5112238;28;20197;-43
2022/08/06 03:49:03;;;;;;;1.90;1.10;;;15.20;88.30;;;;;;5111984;28;20202;-44
2022/08/06 03:51:33;;;;;;;2.77;1.20;;;15.20;88.40;;;;;;5094454;28;20217;-41
2022/08/06 03:54:30;;;;;;;2.80;1.03;;;15.20;88.50;;;;;;5118162;27;20205;-42
2022/08/06 03:57:11;;;;;;;1.60;1.10;;;15.20;88.80;;;;;;5132772;27;20278;-42
2022/08/06 03:59:42;;;;;;;2.27;1.33;;;15.10;88.80;;;;;;5132577;27;20663;-43
2022/08/06 04:02:39;;;;;;;1.60;1.00;;;15.10;88.60;;;;;;5129396;27;20274;-42
2022/08/06 04:05:22;;;;;;;1.50;0.87;;;15.10;89.00;;;;;;5131723;27;20197;-42
2022/08/06 04:07:52;;;;;;;3.33;1.13;;;15.00;88.70;;;;;;5129296;27;20209;-43
2022/08/06 04:10:44;;;;;;;1.57;1.00;;;15.00;88.80;;;;;;5129951;27;20703;-43
2022/08/06 04:13:25;;;;;;;3.23;1.10;;;15.00;89.40;;;;;;5096216;28;20221;-43
2022/08/06 04:16:16;;;;;;;3.53;1.00;;;15.00;89.00;;;;;;5112724;28;20251;-44
2022/08/06 04:19:00;;;;;;;2.90;1.30;;;15.00;89.20;;;;;;5111731;28;20278;-43
2022/08/06 04:21:27;;;;;;;2.50;0.90;;;14.90;89.20;;;;;;5111578;28;20194;-42
2022/08/06 04:24:15;;;;;;;2.13;1.00;;;14.90;89.20;;;;;;5097503;27;20695;-42
2022/08/06 04:26:45;;;;;;;4.73;1.57;;;14.90;89.20;;;;;;5094211;28;20214;-44
2022/08/06 04:29:18;;;;;;;4.77;1.90;;;14.90;89.20;;;;;;5133174;27;20201;-43
2022/08/06 04:31:50;;;;;;;4.03;1.20;;;14.90;89.20;;;;;;5153846;27;20512;-42
2022/08/06 04:34:38;;;;;;;1.67;0.87;;;14.90;89.40;;;;;;5122624;27;20731;-43
2022/08/06 04:37:28;;;;;;;3.63;1.20;;;14.80;89.30;;;;;;5111544;28;20748;-44
2022/08/06 04:40:08;;;;;;;3.57;1.23;;;14.90;89.60;;;;;;5111446;28;20829;-44
2022/08/06 04:42:48;;;;;;;3.43;1.30;;;14.90;89.50;;;;;;5124400;27;20209;-44
2022/08/06 04:45:18;;;;;;;1.90;1.13;;;14.90;89.60;;;;;;5122009;27;20234;-45
2022/08/06 04:48:09;;;;;;;3.57;1.43;;;14.90;89.70;;;;;;5096087;28;20217;-42
2022/08/06 04:50:45;;;;;;;2.80;1.30;;;14.90;89.70;;;;;;5110600;28;20202;-42
2022/08/06 04:53:16;;;;;;;3.07;1.10;;;14.90;89.50;;;;;;5111922;27;20210;-43
2022/08/06 04:56:04;;;;;;;2.03;1.10;;;15.00;89.80;;;;;;5131420;27;20221;-43
2022/08/06 04:58:33;;;;;;;3.50;1.27;;;15.00;89.90;;;;;;5127953;27;20237;-42
2022/08/06 05:01:06;;;;;;;3.30;1.43;;;15.00;90.00;;;;;;5110935;28;20608;-42
2022/08/06 05:03:37;;;;;;;3.70;1.40;;;15.00;90.00;;;;;;5112997;27;20224;-43
2022/08/06 05:06:47;;;;;;;3.27;1.23;;;15.10;89.60;;;;;;5130570;27;20197;-42
2022/08/06 05:09:24;;;;;;;3.00;1.43;;;15.10;90.00;;;;;;5130738;27;20205;-41
2022/08/06 05:12:21;;;;;;;7.40;1.27;;;15.20;89.90;;;;;;5110790;28;20206;-43
2022/08/06 05:14:57;;;;;;;1.77;1.10;;;15.20;90.00;;;;;;5110232;28;20236;-42
2022/08/06 05:17:33;;;;;;;3.97;1.37;;;15.20;90.00;;;;;;5111182;27;20256;-42
2022/08/06 05:20:11;;;;;;;3.33;1.40;;;15.20;90.00;;;;;;5125530;27;20225;-42
2022/08/06 05:23:01;;;;;;;7.40;1.40;;;15.30;90.20;;;;;;5131285;27;20294;-43
2022/08/06 05:25:46;;;;;;;2.93;1.30;;;15.30;90.20;;;;;;5130876;27;20197;-42
2022/08/06 05:28:20;;;;;;;3.50;1.10;;;15.30;90.50;;;;;;5113629;27;20201;-43
2022/08/06 05:30:52;;;;;;;3.57;1.40;;;15.30;90.20;;;;;;5132184;27;20568;-42
2022/08/06 05:33:28;;;;;;;1.77;1.20;;;15.30;90.30;;;;;;5129876;27;20262;-42
2022/08/06 05:36:01;;;;;;;5.47;1.23;;;15.40;90.50;;;;;;5123557;27;20300;-42
2022/08/06 05:38:35;;;;;;;3.83;1.30;;;15.40;90.50;;;;;;5092373;28;20699;-44
2022/08/06 05:41:13;;;;;;;4.63;1.63;;;15.40;90.50;;;;;;5110108;28;20222;-43
2022/08/06 05:43:40;;;;;;;2.75;1.17;;;15.40;90.50;;;;;;5110075;28;20612;-44
2022/08/06 05:46:34;;;;;;;3.73;1.10;;;15.50;90.50;;;;;;5109875;28;20245;-42
2022/08/06 05:49:26;;;;;;;2.77;1.23;;;15.50;90.60;;;;;;5109606;28;20202;-43
2022/08/06 05:52:22;;;;;;;5.60;1.50;;;15.60;90.70;;;;;;5095248;27;20202;-44
2022/08/06 05:55:02;;;;;;;3.20;1.43;;;15.60;90.70;;;;;;5111504;27;20288;-43
2022/08/06 05:57:39;;;;;;;3.43;1.30;;;15.60;90.60;;;;;;5120813;27;20210;-35
2022/08/06 06:00:15;;;;;;;3.17;1.40;;;15.70;90.60;;;;;;5109328;28;20222;-36
2022/08/06 06:03:07;;;;;;;3.00;1.57;;;15.70;90.70;;;;;;5109894;28;20297;-35
2022/08/06 06:05:53;;;;;;;1.77;1.40;;;15.80;90.80;;;;;;5109080;28;20201;-35
2022/08/06 06:08:43;;;;;;;1.73;1.53;;;15.80;90.80;;;;;;5118269;27;20308;-36
2022/08/06 06:11:27;;;;;;;3.87;1.50;;;15.90;90.80;;;;;;5111043;27;20212;-35
2022/08/06 06:14:27;;;;;;;5.33;1.83;;;15.90;90.80;;;;;;5109761;28;20623;-36
2022/08/06 06:17:14;;;;;;;6.50;1.50;;;16.00;90.90;;;;;;5109536;28;20647;-35
2022/08/06 06:20:19;;;;;;;3.83;1.60;;;16.00;90.90;;;;;;5128963;27;20224;-36
2022/08/06 06:23:15;;;;;;;9.47;1.73;;;16.10;91.00;;;;;;5129712;27;20263;-36
2022/08/06 06:26:14;;;;;;;4.80;1.70;;;16.20;91.00;;;;;;5091297;28;20263;-36
2022/08/06 06:29:17;;;;;;;4.10;1.50;;;16.20;91.20;;;;;;5110784;27;20194;-43
2022/08/06 06:32:23;;;;;;;2.40;1.33;;;16.30;91.10;;;;;;5093866;28;20214;-42
2022/08/06 06:35:09;;;;;;;4.53;1.40;;;16.40;91.20;;;;;;5108170;28;20555;-42
2022/08/06 06:37:49;;;;;;;3.87;1.70;;;16.50;91.30;;;;;;5091583;28;20232;-43
2022/08/06 06:40:54;;;;;;;4.70;1.67;;;16.50;91.30;;;;;;5109218;27;20286;-42
2022/08/06 06:44:07;;;;;;;9.27;1.97;;;16.60;91.40;;;;;;5113090;27;20203;-42
2022/08/06 06:46:51;;;;;;;2.35;1.35;;;16.70;91.50;;;;;;5129563;27;20254;-43
2022/08/06 06:49:33;;;;;;;6.15;1.83;;;16.80;91.50;;;;;;5128960;27;20617;-43
2022/08/06 06:52:23;;;;;;;2.77;1.80;;;16.90;91.60;;;;;;5129373;27;20295;-44
2022/08/06 06:55:08;;;;;;;6.77;2.80;;;17.00;91.60;;;;;;5128881;27;20297;-43
2022/08/06 06:57:50;;;;;;;5.47;2.23;;;17.10;91.70;;;;;;5124303;27;20337;-43
2022/08/06 07:00:18;;;;;;;3.67;1.80;;;17.10;91.70;;;;;;5109688;28;20221;-34
2022/08/06 07:03:07;;;;;;;5.83;1.80;;;17.20;91.70;;;;;;5129099;28;20213;-35
2022/08/06 07:05:43;;;;;;;6.60;1.70;;;17.30;91.70;;;;;;5110398;28;20193;-36
2022/08/06 07:08:32;;;;;;;5.28;1.55;;;17.40;91.70;;;;;;5113641;28;20232;-36
2022/08/06 07:11:17;;;;;;;5.43;1.80;;;17.40;91.70;;;;;;5129402;28;20201;-36
2022/08/06 07:13:49;;;;;;;2.92;1.27;;;17.50;91.80;;;;;;5129050;28;20209;-36
2022/08/06 07:16:21;;;;;;;7.30;1.38;;;17.60;92.10;;;;;;5110135;28;20205;-36
2022/08/06 07:19:10;;;;;;;6.35;1.45;;;17.70;91.90;;;;;;5112282;28;20218;-36
2022/08/06 07:21:43;;;;;;;4.55;1.40;;;17.80;91.90;;;;;;5112821;28;20225;-35
2022/08/06 07:24:25;;;;;;;5.30;1.20;;;17.80;91.90;;;;;;5122460;27;20198;-36
2022/08/06 07:27:08;;;;;;;2.17;0.90;;;17.80;92.00;;;;;;5133281;27;20201;-35
2022/08/06 07:29:42;;;;;;;4.70;1.33;;;17.90;92.00;;;;;;5127926;27;20226;-36
2022/08/06 07:32:27;;;;;;;3.95;0.90;;;17.90;92.20;;;;;;5115543;27;20771;-36
2022/08/06 07:35:08;;;;;;;1.58;0.80;;;18.00;92.00;;;;;;5125028;27;20210;-37
2022/08/06 07:37:55;;;;;;;5.22;1.25;;;18.00;92.00;;;;;;5112539;28;20204;-36
2022/08/06 07:40:34;;;;;;;3.63;1.07;;;18.20;91.90;;;;;;5112325;28;20226;-36
2022/08/06 07:43:10;;;;;;;5.60;1.00;;;18.30;91.90;;;;;;5112305;28;20868;-35
2022/08/06 07:45:54;;;;;;;3.75;0.98;;;18.30;91.90;;;;;;5112328;28;20218;-36
2022/08/06 07:48:28;;;;;;;4.57;0.90;;;18.40;91.90;;;;;;5113069;27;20271;-36
2022/08/06 07:51:00;;;;;;;1.52;0.70;;;18.40;92.00;;;;;;5111542;28;20645;-36
2022/08/06 07:53:36;;;;;;;2.25;0.88;;;18.40;92.00;;;;;;5094335;28;20211;-36
2022/08/06 07:56:25;;;;;;;8.10;0.82;;;18.50;92.10;;;;;;5111907;28;20240;-35
2022/08/06 07:58:55;;;;;;;2.17;0.90;;;18.60;92.10;;;;;;5132448;27;20260;-43
2022/08/06 08:01:25;;;;;;;5.85;1.00;;;18.60;92.20;;;;;;5080876;27;20439;-43
2022/08/06 08:07:05;;;;;;;2.95;0.70;;;18.70;92.40;;;;;;5116593;27;20197;-42
2022/08/06 08:09:41;;;;;;;4.43;1.20;;;18.70;92.30;;;;;;5099374;28;20321;-42
2022/08/06 08:12:29;;;;;;;3.30;0.80;;;18.70;92.20;;;;;;5111722;28;20194;-43
2022/08/06 08:15:07;;;;;;;6.50;1.08;;;18.80;92.20;;;;;;5111863;28;20267;-42
2022/08/06 08:17:45;;;;;;;3.72;1.00;;;18.90;92.30;;;;;;5095394;28;20285;-42
2022/08/06 08:20:29;;;;;;;3.40;0.90;;;18.90;92.20;;;;;;5110520;28;20287;-43
2022/08/06 08:23:04;;;;;;;2.78;0.77;;;19.00;92.20;;;;;;5112260;27;20205;-43
2022/08/06 08:25:34;;;;;;;2.08;0.50;;;19.00;92.30;;;;;;5097364;27;20202;-42
2022/08/06 08:28:10;;;;;;;3.85;0.88;;;19.10;92.40;;;;;;5131980;27;20216;-43
2022/08/06 08:30:45;;;;;;;2.70;0.80;;;19.10;92.50;;;;;;5117282;27;20300;-43
2022/08/06 08:33:20;;;;;;;5.00;0.70;;;19.20;92.50;;;;;;5122344;27;20197;-43
2022/08/06 08:35:48;;;;;;;2.83;0.60;;;19.20;92.50;;;;;;5115803;27;20202;-43
2022/08/06 08:38:28;;;;;;;2.47;0.80;;;19.30;92.40;;;;;;5111077;28;20197;-43
2022/08/06 08:40:59;;;;;;;4.20;0.88;;;19.40;92.50;;;;;;5107384;27;20225;-43
2022/08/06 08:43:40;;;;;;;2.17;0.77;;;19.40;92.50;;;;;;5102183;28;20214;-43
2022/08/06 08:46:29;;;;;;;2.97;0.80;;;19.50;92.20;;;;;;5111013;28;20194;-44
2022/08/06 08:49:02;;;;;;;4.00;0.75;;;19.50;92.20;;;;;;5093227;28;20241;-43
2022/08/06 08:51:37;;;;;;;1.77;0.65;;;19.50;92.30;;;;;;5110263;28;20222;-43
2022/08/06 08:54:13;;;;;;;4.53;0.60;;;19.50;92.10;;;;;;5110789;28;20593;-44
2022/08/06 08:56:45;;;;;;;1.48;0.55;;;19.50;92.20;;;;;;5111426;27;20545;-43
2022/08/06 08:59:34;;;;;;;1.67;0.55;;;19.50;92.20;;;;;;5111080;27;20261;-42
2022/08/06 09:02:27;;;;;;;3.13;0.80;;;19.50;92.20;;;;;;5111281;28;20310;-43
2022/08/06 09:04:57;;;;;;;2.72;0.65;;;19.50;92.10;;;;;;5109748;28;20248;-43
2022/08/06 09:07:26;;;;;;;2.25;0.63;;;19.50;91.90;;;;;;5110855;28;20194;-43
2022/08/06 09:10:08;;;;;;;1.23;0.70;;;19.50;91.90;;;;;;5110385;28;20222;-42
2022/08/06 09:12:42;;;;;;;1.50;0.60;;;19.50;92.00;;;;;;5093585;28;20221;-43
2022/08/06 09:15:17;;;;;;;3.35;0.75;;;19.50;92.00;;;;;;5093422;28;20210;-43
2022/08/06 09:17:47;;;;;;;4.10;0.70;;;19.50;92.00;;;;;;5123648;27;20206;-43
2022/08/06 09:20:35;;;;;;;1.45;0.65;;;19.50;92.00;;;;;;5129638;27;20648;-42
2022/08/06 09:23:03;;;;;;;2.33;0.63;;;19.50;92.10;;;;;;5123739;27;20255;-42
2022/08/06 09:25:50;;;;;;;5.50;0.85;;;19.60;92.20;;;;;;5094051;28;20190;-43
2022/08/06 09:28:36;;;;;;;2.10;0.60;;;19.70;92.30;;;;;;5111773;28;20210;-42
2022/08/06 09:31:04;;;;;;;2.35;0.90;;;19.70;92.30;;;;;;5131684;27;20194;-36
2022/08/06 09:33:42;;;;;;;4.00;0.80;;;19.80;92.20;;;;;;5113558;27;20197;-36
2022/08/06 09:36:45;;;;;;;1.10;0.70;;;19.80;92.20;;;;;;5115725;27;20691;-36
2022/08/06 09:39:31;;;;;;;3.28;0.60;;;19.80;92.30;;;;;;5112803;27;20607;-43
2022/08/06 09:42:40;;;;;;;4.50;0.85;;;19.80;92.20;;;;;;5129485;27;20632;-43
2022/08/06 09:45:12;;;;;;;3.42;0.80;;;19.90;91.80;;;;;;5112037;27;20589;-42
2022/08/06 09:47:45;;;;;;;1.77;0.60;;;20.00;91.80;;;;;;5125742;27;20202;-43
2022/08/06 09:50:41;;;;;;;3.72;0.90;;;20.10;91.40;;;;;;5110875;27;20206;-42
2022/08/06 09:53:11;;;;;;;2.67;0.70;;;20.10;90.80;;;;;;5112283;27;20229;-44
2022/08/06 09:55:42;;;;;;;2.63;0.70;;;20.10;91.10;;;;;;5130221;27;20206;-42
2022/08/06 09:58:11;;;;;;;2.67;0.88;;;20.10;91.20;;;;;;5094385;28;20478;-43
2022/08/06 10:00:39;;;;;;;4.68;0.90;;;20.10;91.00;;;;;;5109503;28;20793;-43
2022/08/06 10:03:08;;;;;;;5.40;1.05;;;20.10;91.20;;;;;;5109805;28;20617;-37
2022/08/06 10:06:07;;;;;;;1.75;0.75;;;20.20;91.30;;;;;;5123629;27;20201;-35
2022/08/06 10:08:38;;;;;;;3.85;0.95;;;20.20;91.30;;;;;;5125870;27;20197;-36
2022/08/06 10:11:07;;;;;;;3.65;1.25;;;20.20;91.40;;;;;;5129916;27;20628;-37
2022/08/06 10:13:38;;;;;;;1.30;0.50;;;20.30;91.30;;;;;;5130194;27;20205;-36
2022/08/06 10:16:29;;;;;;;1.95;0.68;;;20.30;91.50;;;;;;5112775;27;20253;-36
2022/08/06 10:18:59;;;;;;;6.00;1.25;;;20.40;91.00;;;;;;5110732;27;20209;-35
2022/08/06 10:21:45;;;;;;;2.28;0.70;;;20.40;91.30;;;;;;5128522;27;20270;-35
2022/08/06 10:24:15;;;;;;;2.67;0.63;;;20.40;90.90;;;;;;5112498;27;20679;-35
2022/08/06 10:27:07;;;;;;;2.65;0.70;;;20.40;90.90;;;;;;5109616;28;20190;-35
2022/08/06 10:29:44;;;;;;;2.35;0.70;;;20.50;90.70;;;;;;5122782;27;20215;-36
2022/08/06 10:32:15;;;;;;;1.10;0.60;;;20.50;90.80;;;;;;5115055;27;20680;-36
2022/08/06 10:34:48;;;;;;;2.15;0.50;;;20.50;91.20;;;;;;5108661;28;20297;-42
2022/08/06 10:37:18;;;;;;;2.40;0.60;;;20.50;91.30;;;;;;5108896;28;20225;-43
2022/08/06 10:40:09;;;;;;;2.28;0.57;;;20.50;90.70;;;;;;5109496;28;20198;-43
2022/08/06 10:42:40;;;;;;;4.03;0.70;;;20.60;90.60;;;;;;5109005;27;20225;-42
2022/08/06 10:45:11;;;;;;;1.38;0.63;;;20.50;90.40;;;;;;5108819;28;20656;-44
2022/08/06 10:47:44;;;;;;;4.75;0.82;;;20.50;90.80;;;;;;5108929;28;20699;-43
2022/08/06 10:50:32;;;;;;;0.90;0.60;;;20.70;90.10;;;;;;5124245;27;20219;-41
2022/08/06 10:53:14;;;;;;;2.90;0.80;;;20.70;90.00;;;;;;5108754;28;20193;-41
2022/08/06 10:56:07;;;;;;;3.08;0.57;;;20.70;90.30;;;;;;5115759;27;20665;-42
2022/08/06 10:58:36;;;;;;;0.80;0.50;;;20.70;90.20;;;;;;5127584;27;20245;-43
2022/08/06 11:01:10;;;;;;;2.05;0.40;;;20.70;89.50;;;;;;5129162;28;20225;-43
2022/08/06 11:04:06;;;;;;;1.70;0.63;;;20.70;90.10;;;;;;5110846;28;20304;-42
2022/08/06 11:06:59;;;;;;;1.65;0.55;;;20.80;90.20;;;;;;5128569;28;20690;-42
2022/08/06 11:09:35;;;;;;;1.48;0.60;;;20.80;89.00;;;;;;5128842;28;20206;-41
2022/08/06 11:12:45;;;;;;;3.78;0.60;;;20.90;88.30;;;;;;5128273;28;20284;-42
2022/08/06 11:15:18;;;;;;;1.05;0.47;;;20.90;89.30;;;;;;5127348;28;20587;-42
2022/08/06 11:17:56;;;;;;;1.67;0.55;;;20.90;89.70;;;;;;5090579;28;20206;-42
2022/08/06 11:20:31;;;;;;;2.35;0.75;;;21.00;89.90;;;;;;5107116;28;20201;-41
2022/08/06 11:23:23;;;;;;;2.00;0.57;;;21.10;90.00;;;;;;5108278;28;20202;-35
2022/08/06 11:26:30;;;;;;;1.48;0.57;;;21.10;90.20;;;;;;5108360;28;20190;-35
2022/08/06 11:28:59;;;;;;;2.58;0.55;;;21.10;90.20;;;;;;5109138;27;20259;-35
2022/08/06 11:31:47;;;;;;;2.35;0.40;;;21.20;90.60;;;;;;5110121;27;20615;-35
2022/08/06 11:34:42;;;;;;;1.30;0.40;;;21.30;89.80;;;;;;5091812;28;20217;-35
2022/08/06 11:37:42;;;;;;;1.60;0.50;;;21.40;90.30;;;;;;5091278;28;20194;-35
2022/08/06 11:41:07;;;;;;;0.75;0.30;;;21.40;90.10;;;;;;5108038;28;20309;-36
2022/08/06 11:43:46;;;;;;;2.45;0.50;;;21.40;88.50;;;;;;5089905;28;20202;-37
2022/08/06 11:46:40;;;;;;;2.25;0.60;;;21.50;87.60;;;;;;5108335;28;20254;-35
2022/08/06 11:49:33;;;;;;;0.80;0.30;;;21.50;88.80;;;;;;5090566;28;20267;-36
2022/08/06 11:52:37;;;;;;;2.88;0.30;;;21.50;90.20;;;;;;5128559;28;20703;-36
2022/08/06 11:55:15;;;;;;;0.80;0.60;;;21.60;90.00;;;;;;5127890;28;20198;-36
2022/08/06 11:58:15;;;;;;;1.58;0.75;;;21.70;90.30;;;;;;5118617;28;20237;-37
2022/08/06 12:01:00;;;;;;;2.03;0.50;;;21.80;88.50;;;;;;5111355;28;20226;-37
2022/08/06 12:03:48;;;;;;;4.07;0.70;;;21.80;89.50;;;;;;5108284;28;20202;-37
2022/08/06 12:06:23;;;;;;;1.33;0.50;;;21.90;86.60;;;;;;5110620;27;20210;-38
2022/08/06 12:09:32;;;;;;;1.27;0.40;;;21.90;87.40;;;;;;5131998;27;20337;-37
2022/08/06 12:12:28;;;;;;;2.05;0.50;;;21.90;84.60;;;;;;5085731;27;20676;-37
2022/08/06 12:14:57;;;;;;;1.02;0.52;;;21.90;87.50;;;;;;5132144;27;20213;-37
2022/08/06 12:17:32;;;;;;;1.08;0.40;;;21.90;88.00;;;;;;5132623;27;20201;-37
2022/08/06 12:20:37;;;;;;;1.20;0.40;;;21.90;87.90;;;;;;5130635;27;20190;-37
2022/08/06 12:23:14;;;;;;;3.28;0.40;;;22.00;88.70;;;;;;5114563;27;20815;-37
2022/08/06 12:25:47;;;;;;;0.88;0.38;;;22.10;86.60;;;;;;5111899;28;20205;-37
2022/08/06 12:28:18;;;;;;;1.38;0.47;;;22.20;88.90;;;;;;5110969;28;20236;-36
2022/08/06 12:30:53;;;;;;;1.27;0.32;;;22.30;90.00;;;;;;5131963;27;20210;-35
2022/08/06 12:33:22;;;;;;;0.82;0.45;;;22.40;87.90;;;;;;5110817;28;20680;-36
2022/08/06 12:35:52;;;;;;;1.35;0.40;;;22.40;86.40;;;;;;5092490;28;20282;-36
2022/08/06 12:38:25;;;;;;;0.90;0.30;;;22.50;88.30;;;;;;5094058;28;20601;-35
2022/08/06 12:41:01;;;;;;;0.68;0.38;;;22.50;89.00;;;;;;5093396;28;20222;-36
2022/08/06 12:43:42;;;;;;;0.45;0.40;;;22.50;86.20;;;;;;5094132;28;20672;-35
2022/08/06 12:46:25;;;;;;;3.50;0.95;;;22.40;85.50;;;;;;5110879;28;20197;-36
2022/08/06 12:49:00;;;;;;;2.90;0.75;;;22.50;87.50;;;;;;5110176;28;20221;-36
2022/08/06 12:51:30;;;;;;;3.08;0.52;;;22.50;86.30;;;;;;5110348;28;20214;-36
2022/08/06 12:54:06;;;;;;;2.65;0.40;;;22.60;84.80;;;;;;5110914;28;20293;-35
2022/08/06 12:56:38;;;;;;;4.07;0.40;;;22.60;87.00;;;;;;5130369;27;20212;-36
2022/08/06 12:59:10;;;;;;;0.95;0.30;;;22.70;88.30;;;;;;5079574;28;20739;-35
2022/08/06 13:01:54;;;;;;;2.83;0.43;;;22.80;87.30;;;;;;5123437;27;20225;-35
2022/08/06 13:04:45;;;;;;;1.98;0.80;;;22.90;88.10;;;;;;5130894;27;20285;-35
2022/08/06 13:07:14;;;;;;;1.17;0.40;;;22.90;84.10;;;;;;5112474;27;20302;-35
2022/08/06 13:09:43;;;;;;;1.08;0.43;;;22.90;86.20;;;;;;5130709;27;20202;-35
2022/08/06 13:12:31;;;;;;;0.98;0.30;;;22.90;86.60;;;;;;5129992;27;20233;-35
2022/08/06 13:15:20;;;;;;;2.13;0.70;;;23.00;86.80;;;;;;5120788;27;20337;-35
2022/08/06 13:18:07;;;;;;;1.73;0.55;;;23.10;83.90;;;;;;5110193;28;20206;-35
2022/08/06 13:20:55;;;;;;;2.70;0.40;;;23.20;85.10;;;;;;5116179;27;20554;-35
2022/08/06 13:23:27;;;;;;;1.80;0.68;;;23.10;85.90;;;;;;5112518;27;20217;-35
2022/08/06 13:25:55;;;;;;;1.10;0.20;;;23.20;84.60;;;;;;5112298;27;20499;-35
2022/08/06 13:29:02;;;;;;;1.20;0.43;;;23.20;85.50;;;;;;5125963;27;20198;-36
2022/08/06 13:32:00;;;;;;;1.15;0.50;;;23.20;86.10;;;;;;5110564;27;20218;-35
2022/08/06 13:34:29;;;;;;;1.80;0.40;;;23.20;84.70;;;;;;5109606;28;20279;-36
2022/08/06 13:36:58;;;;;;;1.25;0.40;;;23.30;85.00;;;;;;5109541;28;20727;-36
2022/08/06 13:39:31;;;;;;;2.47;0.68;;;23.30;85.90;;;;;;5091509;28;20271;-36
2022/08/06 13:42:11;;;;;;;1.35;0.60;;;23.40;85.60;;;;;;5091456;28;20246;-36
2022/08/06 13:44:43;;;;;;;1.25;0.47;;;23.40;84.70;;;;;;5109993;28;20729;-36
2022/08/06 13:47:16;;;;;;;0.85;0.40;;;23.50;85.30;;;;;;5092071;28;20212;-36
2022/08/06 13:50:06;;;;;;;1.10;0.63;;;23.50;83.10;;;;;;5124671;27;20266;-36
2022/08/06 13:52:34;;;;;;;1.15;0.50;;;23.40;84.60;;;;;;5130451;27;20221;-36
2022/08/06 13:55:02;;;;;;;1.75;0.55;;;23.30;81.30;;;;;;5130250;27;20205;-35
2022/08/06 13:57:36;;;;;;;1.88;0.50;;;23.30;84.30;;;;;;5129332;27;20607;-36
2022/08/06 14:00:10;;;;;;;0.75;0.40;;;23.30;84.80;;;;;;5129660;27;20205;-36
2022/08/06 14:02:42;;;;;;;1.85;0.45;;;23.40;83.60;;;;;;5111339;27;20589;-36